createdAt,value
2022-11-03T00:02:23.421Z,8.54
2022-11-03T00:05:25.444Z,8.60
2022-11-03T00:08:27.345Z,8.64
2022-11-03T00:11:29.410Z,8.63
2022-11-03T00:14:32.659Z,8.65
2022-11-03T00:17:34.610Z,8.65
2022-11-03T00:20:36.527Z,8.67
2022-11-03T00:23:40.175Z,8.71
2022-11-03T00:26:42.208Z,8.69
2022-11-03T00:29:45.571Z,8.70
2022-11-03T00:32:47.564Z,8.77
2022-11-03T00:35:49.737Z,8.76
2022-11-03T00:38:52.144Z,8.79
2022-11-03T00:41:54.091Z,8.88
2022-11-03T00:44:57.468Z,8.91
2022-11-03T00:47:59.466Z,8.87
2022-11-03T00:51:07.521Z,8.93
2022-11-03T00:54:09.554Z,8.98
2022-11-03T00:57:11.606Z,8.96
2022-11-03T01:00:15.091Z,9.00
2022-11-03T01:03:17.002Z,9.00
2022-11-03T01:06:19.007Z,9.02
2022-11-03T01:09:22.747Z,9.03
2022-11-03T01:12:24.740Z,9.06
2022-11-03T01:15:29.042Z,8.99
2022-11-03T01:18:30.981Z,9.02
2022-11-03T01:21:32.963Z,9.08
2022-11-03T01:24:35.428Z,9.08
2022-11-03T01:27:37.373Z,9.07
2022-11-03T01:30:40.725Z,9.03
2022-11-03T01:33:43.213Z,8.95
2022-11-03T01:36:45.556Z,8.95
2022-11-03T01:39:47.412Z,8.95
2022-11-03T01:42:49.369Z,8.98
2022-11-03T01:46:01.679Z,8.80
2022-11-03T01:49:07.864Z,8.87
2022-11-03T01:52:13.823Z,8.81
2022-11-03T01:55:19.886Z,8.75
2022-11-03T01:58:25.618Z,8.83
2022-11-03T02:01:30.494Z,8.80
2022-11-03T02:04:34.406Z,8.74
2022-11-03T02:07:42.791Z,8.73
2022-11-03T02:10:47.850Z,8.75
2022-11-03T02:13:49.761Z,8.71
2022-11-03T02:16:56.392Z,8.68
2022-11-03T02:20:01.413Z,8.52
2022-11-03T02:23:26.428Z,8.53
2022-11-03T02:26:30.499Z,8.58
2022-11-03T02:29:32.561Z,8.62
2022-11-03T02:32:42.247Z,8.60
2022-11-03T02:35:51.407Z,8.53
2022-11-03T02:38:57.479Z,8.49
2022-11-03T02:42:03.149Z,8.48
2022-11-03T02:45:13.296Z,8.47
2022-11-03T02:48:19.000Z,8.54
2022-11-03T02:51:21.048Z,8.63
2022-11-03T02:54:27.303Z,8.57
2022-11-03T02:57:36.239Z,8.46
2022-11-03T03:00:45.993Z,8.45
2022-11-03T03:03:50.598Z,8.46
2022-11-03T03:06:57.461Z,8.49
2022-11-03T03:10:02.903Z,8.44
2022-11-03T03:13:09.048Z,8.50
2022-11-03T03:16:16.738Z,8.51
2022-11-03T03:19:25.293Z,8.46
2022-11-03T03:22:31.769Z,8.43
2022-11-03T03:25:37.279Z,8.38
2022-11-03T03:28:44.497Z,8.37
2022-11-03T03:31:53.718Z,8.24
2022-11-03T03:34:56.651Z,8.30
2022-11-03T03:38:03.720Z,8.33
2022-11-03T03:41:10.988Z,8.20
2022-11-03T03:44:16.122Z,8.14
2022-11-03T03:47:22.719Z,8.12
2022-11-03T03:50:27.828Z,8.02
2022-11-03T03:53:30.606Z,8.15
2022-11-03T03:56:37.864Z,8.17
2022-11-03T03:59:41.258Z,8.14
2022-11-03T04:02:43.260Z,8.22
2022-11-03T04:05:45.751Z,8.17
2022-11-03T04:08:47.651Z,8.12
2022-11-03T04:11:49.579Z,8.10
2022-11-03T04:14:52.973Z,8.14
2022-11-03T04:17:55.017Z,8.21
2022-11-03T04:20:57.069Z,8.22
2022-11-03T04:23:59.366Z,8.24
2022-11-03T04:27:06.013Z,8.22
2022-11-03T04:30:15.383Z,8.24
2022-11-03T04:33:20.060Z,8.21
2022-11-03T04:36:25.435Z,8.14
2022-11-03T04:39:28.603Z,8.11
2022-11-03T04:42:34.896Z,7.92
2022-11-03T04:45:38.349Z,7.94
2022-11-03T04:48:40.435Z,8.00
2022-11-03T04:51:42.965Z,7.93
2022-11-03T04:54:46.951Z,7.94
2022-11-03T04:57:54.419Z,7.86
2022-11-03T05:01:00.650Z,7.83
2022-11-03T05:04:11.709Z,7.79
2022-11-03T05:07:23.198Z,7.82
2022-11-03T05:10:28.055Z,7.81
2022-11-03T05:13:30.028Z,7.85
2022-11-03T05:16:33.571Z,7.80
2022-11-03T05:19:39.582Z,7.67
2022-11-03T05:22:41.638Z,7.76
2022-11-03T05:25:45.727Z,7.79
2022-11-03T05:28:50.882Z,7.82
2022-11-03T05:31:55.941Z,7.88
2022-11-03T05:34:58.457Z,7.87
2022-11-03T05:38:02.793Z,7.89
2022-11-03T05:41:14.680Z,7.88
2022-11-03T05:44:28.080Z,7.94
2022-11-03T05:47:36.317Z,7.94
2022-11-03T05:50:42.102Z,7.98
2022-11-03T05:53:44.407Z,8.03
2022-11-03T05:56:47.105Z,7.97
2022-11-03T05:59:52.197Z,7.91
2022-11-03T06:02:56.027Z,7.92
2022-11-03T06:06:00.185Z,7.94
2022-11-03T06:09:09.710Z,7.80
2022-11-03T06:12:18.120Z,7.88
2022-11-03T06:15:29.079Z,7.90
2022-11-03T06:18:35.050Z,7.93
2022-11-03T06:21:41.830Z,7.85
2022-11-03T06:24:46.148Z,7.86
2022-11-03T06:27:48.220Z,7.79
2022-11-03T06:30:51.375Z,7.97
2022-11-03T06:33:57.342Z,7.85
2022-11-03T06:37:09.528Z,7.94
2022-11-03T06:40:33.147Z,7.92
2022-11-03T06:43:40.828Z,7.99
2022-11-03T06:46:42.907Z,8.06
2022-11-03T06:49:46.332Z,8.13
2022-11-03T06:55:56.632Z,8.20
2022-11-03T06:58:58.580Z,8.22
2022-11-03T07:02:01.205Z,8.30
2022-11-03T07:05:09.659Z,8.34
2022-11-03T07:08:22.897Z,8.32
2022-11-03T07:11:26.546Z,8.26
2022-11-03T07:14:31.240Z,8.26
2022-11-03T07:17:34.382Z,8.28
2022-11-03T07:20:39.445Z,8.28
2022-11-03T07:23:44.728Z,8.34
2022-11-03T07:26:50.344Z,8.40
2022-11-03T07:29:58.390Z,8.41
2022-11-03T07:33:09.210Z,8.41
2022-11-03T07:36:16.990Z,8.64
2022-11-03T07:39:21.092Z,8.48
2022-11-03T07:42:25.810Z,8.49
2022-11-03T07:45:38.577Z,8.46
2022-11-03T07:48:45.537Z,8.47
2022-11-03T07:51:49.176Z,8.47
2022-11-03T07:54:52.177Z,8.51
2022-11-03T07:57:54.191Z,8.54
2022-11-03T08:00:56.566Z,8.55
2022-11-03T08:04:01.807Z,8.58
2022-11-03T08:07:05.164Z,8.70
2022-11-03T08:10:07.759Z,8.56
2022-11-03T08:13:09.805Z,8.67
2022-11-03T08:16:11.737Z,8.68
2022-11-03T08:19:13.732Z,8.61
2022-11-03T08:22:17.086Z,8.66
2022-11-03T08:25:19.113Z,8.74
2022-11-03T08:28:21.833Z,8.89
2022-11-03T08:31:23.836Z,8.77
2022-11-03T08:34:26.733Z,8.80
2022-11-03T08:37:30.063Z,8.83
2022-11-03T08:40:32.017Z,8.88
2022-11-03T08:43:34.026Z,8.91
2022-11-03T08:46:36.038Z,8.89
2022-11-03T08:49:37.903Z,8.93
2022-11-03T08:52:41.406Z,8.99
2022-11-03T08:55:43.568Z,9.06
2022-11-03T08:58:45.668Z,9.12
2022-11-03T09:01:47.706Z,9.15
2022-11-03T09:04:49.797Z,9.22
2022-11-03T09:11:15.190Z,9.27
2022-11-03T09:14:17.291Z,9.41
2022-11-03T09:17:19.228Z,9.30
2022-11-03T09:20:21.387Z,9.25
2022-11-03T09:23:24.917Z,9.28
2022-11-03T09:26:27.289Z,9.40
2022-11-03T09:29:36.377Z,9.44
2022-11-03T09:32:47.785Z,9.46
2022-11-03T09:35:49.891Z,9.55
2022-11-03T09:38:53.197Z,9.62
2022-11-03T09:41:58.934Z,9.69
2022-11-03T09:45:02.307Z,9.70
2022-11-03T09:48:05.545Z,9.81
2022-11-03T09:51:10.665Z,9.82
2022-11-03T09:54:16.815Z,9.85
2022-11-03T09:57:18.847Z,9.91
2022-11-03T10:00:22.576Z,9.81
2022-11-03T10:03:24.734Z,9.87
2022-11-03T10:06:27.152Z,9.89
2022-11-03T10:09:30.580Z,9.94
2022-11-03T10:12:36.873Z,9.91
2022-11-03T10:15:39.651Z,10.09
2022-11-03T10:18:41.919Z,10.15
2022-11-03T10:21:44.699Z,10.25
2022-11-03T10:24:49.520Z,10.21
2022-11-03T10:27:51.427Z,10.40
2022-11-03T10:31:11.349Z,10.47
2022-11-03T10:34:25.336Z,10.46
2022-11-03T10:37:27.624Z,10.62
2022-11-03T10:40:50.261Z,10.85
2022-11-03T10:44:04.536Z,10.94
2022-11-03T10:47:06.495Z,11.18
2022-11-03T10:50:22.110Z,11.30
2022-11-03T10:53:24.053Z,11.59
2022-11-03T10:56:27.757Z,11.54
2022-11-03T10:59:32.903Z,11.71
2022-11-03T11:02:35.220Z,11.77
2022-11-03T11:05:44.803Z,11.86
2022-11-03T11:08:47.628Z,11.98
2022-11-03T11:12:02.550Z,11.91
2022-11-03T11:15:26.760Z,11.96
2022-11-03T11:19:11.159Z,12.21
2022-11-03T11:22:13.494Z,12.27
2022-11-03T11:25:17.664Z,12.31
2022-11-03T11:28:20.948Z,12.40
2022-11-03T11:31:30.330Z,12.59
2022-11-03T11:34:39.832Z,12.63
2022-11-03T11:37:42.007Z,12.56
2022-11-03T11:40:50.934Z,12.63
2022-11-03T11:43:54.257Z,12.79
2022-11-03T11:46:56.301Z,12.86
2022-11-03T11:50:22.670Z,12.84
2022-11-03T11:53:31.507Z,13.02
2022-11-03T11:56:33.831Z,13.01
2022-11-03T11:59:37.232Z,12.88
2022-11-03T12:02:39.230Z,12.84
2022-11-03T12:05:41.286Z,12.97
2022-11-03T12:08:44.029Z,12.93
2022-11-03T12:11:49.211Z,12.90
2022-11-03T12:14:53.606Z,12.85
2022-11-03T12:17:55.584Z,12.81
2022-11-03T12:20:57.906Z,12.76
2022-11-03T12:23:59.850Z,12.81
2022-11-03T12:27:03.988Z,12.93
2022-11-03T12:30:13.717Z,13.18
2022-11-03T12:33:15.655Z,13.09
2022-11-03T12:36:17.817Z,13.03
2022-11-03T12:39:20.231Z,13.03
2022-11-03T12:42:22.725Z,12.95
2022-11-03T12:45:26.185Z,13.06
2022-11-03T12:48:28.092Z,13.00
2022-11-03T12:51:30.216Z,13.02
2022-11-03T12:54:32.227Z,13.06
2022-11-03T12:57:34.281Z,13.02
2022-11-03T13:00:37.797Z,12.89
2022-11-03T13:03:39.998Z,12.91
2022-11-03T13:06:42.209Z,12.95
2022-11-03T13:09:44.152Z,12.93
2022-11-03T13:12:46.091Z,12.92
2022-11-03T13:15:49.518Z,13.03
2022-11-03T13:18:51.465Z,13.05
2022-11-03T13:21:54.002Z,12.98
2022-11-03T13:24:56.352Z,13.09
2022-11-03T13:27:58.499Z,13.11
2022-11-03T13:31:01.833Z,13.16
2022-11-03T13:34:04.352Z,13.13
2022-11-03T13:37:06.319Z,13.12
2022-11-03T13:40:19.186Z,13.23
2022-11-03T13:43:32.123Z,13.33
2022-11-03T13:46:36.065Z,13.33
2022-11-03T13:50:12.633Z,13.27
2022-11-03T13:56:23.870Z,13.20
2022-11-03T13:59:26.799Z,13.31
2022-11-03T14:05:55.555Z,13.22
2022-11-03T14:08:57.608Z,13.07
2022-11-03T14:12:00.440Z,13.11
2022-11-03T14:15:05.920Z,13.23
2022-11-03T14:18:10.074Z,13.05
2022-11-03T14:21:12.042Z,12.92
2022-11-03T14:24:14.446Z,12.86
2022-11-03T14:27:17.190Z,12.86
2022-11-03T14:30:19.525Z,12.92
2022-11-03T14:33:22.813Z,12.90
2022-11-03T14:36:24.913Z,12.88
2022-11-03T14:39:27.023Z,12.93
2022-11-03T14:42:29.013Z,12.94
2022-11-03T14:45:31.727Z,12.99
2022-11-03T14:48:35.993Z,13.01
2022-11-03T14:51:38.984Z,12.98
2022-11-03T14:54:41.378Z,12.91
2022-11-03T14:57:43.421Z,12.86
2022-11-03T15:00:45.421Z,12.86
2022-11-03T15:03:48.825Z,12.88
2022-11-03T15:06:50.954Z,12.90
2022-11-03T15:09:52.854Z,12.90
2022-11-03T15:12:55.035Z,12.92
2022-11-03T15:15:57.283Z,12.90
2022-11-03T15:19:00.599Z,12.85
2022-11-03T15:22:02.538Z,12.81
2022-11-03T15:25:12.875Z,12.73
2022-11-03T15:28:14.856Z,12.65
2022-11-03T15:31:16.779Z,12.60
2022-11-03T15:34:20.104Z,12.49
2022-11-03T15:37:22.164Z,12.50
2022-11-03T15:40:24.139Z,12.42
2022-11-03T15:43:26.083Z,12.35
2022-11-03T15:46:28.000Z,12.39
2022-11-03T15:49:32.347Z,12.35
2022-11-03T15:52:34.524Z,12.34
2022-11-03T15:55:36.516Z,12.17
2022-11-03T15:58:38.392Z,12.19
2022-11-03T16:01:40.516Z,12.15
2022-11-03T16:04:45.023Z,12.13
2022-11-03T16:07:48.120Z,12.10
2022-11-03T16:10:56.282Z,12.08
2022-11-03T16:13:59.755Z,11.91
2022-11-03T16:17:01.769Z,11.94
2022-11-03T16:20:06.400Z,11.90
2022-11-03T16:23:08.271Z,11.89
2022-11-03T16:26:10.430Z,11.91
2022-11-03T16:29:12.572Z,12.03
2022-11-03T16:32:14.575Z,11.95
2022-11-03T16:35:17.937Z,11.90
2022-11-03T16:38:20.185Z,11.87
2022-11-03T16:41:22.460Z,11.77
2022-11-03T16:44:24.628Z,11.81
2022-11-03T16:47:26.559Z,11.77
2022-11-03T16:50:29.882Z,11.79
2022-11-03T16:53:32.402Z,11.74
2022-11-03T16:56:34.647Z,11.71
2022-11-03T16:59:36.866Z,11.66
2022-11-03T17:02:39.194Z,11.64
2022-11-03T17:05:42.554Z,11.67
2022-11-03T17:08:52.677Z,11.69
2022-11-03T17:11:55.475Z,11.69
2022-11-03T17:14:57.677Z,11.67
2022-11-03T17:18:00.274Z,11.59
2022-11-03T17:21:04.270Z,11.50
2022-11-03T17:24:07.311Z,11.48
2022-11-03T17:27:15.490Z,11.47
2022-11-03T17:30:19.964Z,11.44
2022-11-03T17:33:21.923Z,11.44
2022-11-03T17:36:25.476Z,11.38
2022-11-03T17:39:30.596Z,11.33
2022-11-03T17:42:33.050Z,11.30
2022-11-03T17:45:35.958Z,11.24
2022-11-03T17:48:37.940Z,11.22
2022-11-03T17:51:42.938Z,11.34
2022-11-03T17:54:45.486Z,11.33
2022-11-03T17:57:49.661Z,11.25
2022-11-03T18:00:52.486Z,11.25
2022-11-03T18:03:54.992Z,11.23
2022-11-03T18:06:59.956Z,11.26
2022-11-03T18:10:02.140Z,11.29
2022-11-03T18:13:11.872Z,11.28
2022-11-03T18:16:15.512Z,11.25
2022-11-03T18:19:20.236Z,11.21
2022-11-03T18:22:24.063Z,11.12
2022-11-03T18:25:26.634Z,11.09
2022-11-03T18:28:30.348Z,11.04
2022-11-03T18:31:35.828Z,11.04
2022-11-03T18:34:42.270Z,11.08
2022-11-03T18:37:46.338Z,11.03
2022-11-03T18:40:49.489Z,10.98
2022-11-03T18:43:52.513Z,11.07
2022-11-03T18:46:56.754Z,11.12
2022-11-03T18:50:00.070Z,11.12
2022-11-03T18:53:04.438Z,11.18
2022-11-03T18:56:11.871Z,11.23
2022-11-03T18:59:20.874Z,11.30
2022-11-03T19:02:25.511Z,11.38
2022-11-03T19:05:28.166Z,11.38
2022-11-03T19:08:34.117Z,11.41
2022-11-03T19:11:37.197Z,11.44
2022-11-03T19:14:42.179Z,11.45
2022-11-03T19:17:46.643Z,11.48
2022-11-03T19:20:49.996Z,11.48
2022-11-03T19:23:58.495Z,11.47
2022-11-03T19:27:03.836Z,11.49
2022-11-03T19:30:08.110Z,11.50
2022-11-03T19:33:19.230Z,11.50
2022-11-03T19:36:22.259Z,11.48
2022-11-03T19:39:36.824Z,11.50
2022-11-03T19:42:39.481Z,11.49
2022-11-03T19:45:42.958Z,11.43
2022-11-03T19:48:45.593Z,11.44
2022-11-03T19:51:48.240Z,11.38
2022-11-03T19:54:52.958Z,11.34
2022-11-03T19:57:58.903Z,11.35
2022-11-03T20:01:07.253Z,11.27
2022-11-03T20:04:11.220Z,11.17
2022-11-03T20:07:15.316Z,11.15
2022-11-03T20:10:21.027Z,11.02
2022-11-03T20:13:26.590Z,10.95
2022-11-03T20:16:32.896Z,11.02
2022-11-03T20:19:35.865Z,10.92
2022-11-03T20:22:41.311Z,10.75
2022-11-03T20:25:45.594Z,10.71
2022-11-03T20:28:48.898Z,10.67
2022-11-03T20:31:51.933Z,10.66
2022-11-03T20:34:53.940Z,10.75
2022-11-03T20:37:59.154Z,10.75
2022-11-03T20:41:10.294Z,10.79
2022-11-03T20:44:13.692Z,10.79
2022-11-03T20:47:15.960Z,10.83
2022-11-03T20:50:20.023Z,10.86
2022-11-03T20:53:24.490Z,10.78
2022-11-03T20:56:29.459Z,10.78
2022-11-03T20:59:33.308Z,10.79
2022-11-03T21:02:38.152Z,10.82
2022-11-03T21:05:40.780Z,10.81
2022-11-03T21:08:43.939Z,10.78
2022-11-03T21:11:56.046Z,10.73
2022-11-03T21:14:59.818Z,10.79
2022-11-03T21:18:02.641Z,10.74
2022-11-03T21:21:10.928Z,10.75
2022-11-03T21:24:13.207Z,10.72
2022-11-03T21:27:17.952Z,10.67
2022-11-03T21:30:20.306Z,10.66
2022-11-03T21:33:23.512Z,10.63
2022-11-03T21:36:25.666Z,10.64
2022-11-03T21:39:28.857Z,10.60
2022-11-03T21:42:32.609Z,10.59
2022-11-03T21:45:34.578Z,10.63
2022-11-03T21:48:37.160Z,10.53
2022-11-03T21:51:39.107Z,10.62
2022-11-03T21:54:41.651Z,10.59
2022-11-03T21:57:44.974Z,10.63
2022-11-03T22:00:47.338Z,10.64
2022-11-03T22:03:49.553Z,10.55
2022-11-03T22:06:53.898Z,10.53
2022-11-03T22:09:55.848Z,10.56
2022-11-03T22:12:59.276Z,10.50
2022-11-03T22:16:01.348Z,10.59
2022-11-03T22:19:05.304Z,10.57
2022-11-03T22:22:11.406Z,10.59
2022-11-03T22:25:13.623Z,10.50
2022-11-03T22:28:17.286Z,10.54
2022-11-03T22:31:19.401Z,10.56
2022-11-03T22:34:21.704Z,10.56
2022-11-03T22:37:23.674Z,10.52
2022-11-03T22:40:25.602Z,10.54
2022-11-03T22:43:28.989Z,10.51
2022-11-03T22:46:30.895Z,10.29
2022-11-03T22:49:32.841Z,10.36
2022-11-03T22:52:34.914Z,10.46
2022-11-03T22:55:36.957Z,10.39
2022-11-03T22:58:40.256Z,10.43
2022-11-03T23:01:42.437Z,10.44
2022-11-03T23:04:46.259Z,10.43
2022-11-03T23:07:48.235Z,10.40
2022-11-03T23:10:50.247Z,10.45
2022-11-03T23:13:55.772Z,10.36
2022-11-03T23:16:57.703Z,10.38
2022-11-03T23:19:59.675Z,10.38
2022-11-03T23:23:01.710Z,10.37
2022-11-03T23:26:03.689Z,10.34
2022-11-03T23:29:07.584Z,10.39
2022-11-03T23:32:09.510Z,10.41
2022-11-03T23:35:11.481Z,10.48
2022-11-03T23:38:13.471Z,10.45
2022-11-03T23:41:17.077Z,10.40
2022-11-03T23:44:20.931Z,10.37
2022-11-03T23:47:22.913Z,10.37
2022-11-03T23:50:24.911Z,10.32
2022-11-03T23:53:27.019Z,10.38
2022-11-03T23:56:30.841Z,10.31
2022-11-03T23:59:34.956Z,10.37
